Time;durP1;ratioP1;P1;durP2;ratioP2;P2;SDS_P1;SDS_P2;PMS_P1;PMS_P2;Temp;Humidity;BMP_temperature;BMP_pressure;BME280_temperature;BME280_humidity;BME280_pressure;Samples;Min_cycle;Max_cycle;Signal;HPM_P1;HPM_P2
2023/06/01 00:01:46;;;;;;;10.27;5.40;;;;;;;14.17;100.00;92803.88;5038303;28;20025;-74
2023/06/01 00:04:13;;;;;;;11.73;5.40;;;;;;;14.15;100.00;92806.81;5054958;28;20050;-74
2023/06/01 00:06:39;;;;;;;10.45;5.45;;;;;;;14.13;100.00;92813.44;5072909;28;20549;-74
2023/06/01 00:09:06;;;;;;;8.23;4.88;;;;;;;14.09;100.00;92812.50;5072785;28;20036;-74
2023/06/01 00:11:31;;;;;;;8.45;5.20;;;;;;;14.05;100.00;92811.53;5037997;28;20490;-74
2023/06/01 00:13:57;;;;;;;8.45;4.93;;;;;;;14.13;100.00;92810.81;5054808;28;20043;-75
2023/06/01 00:16:23;;;;;;;10.60;5.13;;;;;;;14.10;100.00;92819.31;5054673;28;20032;-74
2023/06/01 00:18:48;;;;;;;10.10;4.90;;;;;;;14.04;100.00;92820.50;5054607;28;20082;-75
2023/06/01 00:21:14;;;;;;;9.52;5.13;;;;;;;13.96;100.00;92819.38;5072456;28;20036;-75
2023/06/01 00:23:40;;;;;;;10.27;5.82;;;;;;;13.91;100.00;92814.22;5054491;28;20073;-74
2023/06/01 00:26:07;;;;;;;9.13;5.53;;;;;;;13.83;100.00;92810.44;5072296;28;20039;-74
2023/06/01 00:28:34;;;;;;;10.30;5.60;;;;;;;13.79;100.00;92813.97;5072605;28;20529;-74
2023/06/01 00:31:00;;;;;;;9.10;5.18;;;;;;;13.72;100.00;92809.91;5054460;28;20383;-74
2023/06/01 00:33:26;;;;;;;10.52;5.60;;;;;;;13.67;100.00;92806.63;5054260;28;20036;-74
2023/06/01 00:35:52;;;;;;;15.55;5.60;;;;;;;13.63;100.00;92805.66;5072254;28;20063;-74
2023/06/01 00:38:18;;;;;;;7.88;4.68;;;;;;;13.61;100.00;92810.41;5072182;28;20411;-74
2023/06/01 00:40:45;;;;;;;11.45;5.03;;;;;;;13.55;100.00;92809.75;5053530;28;20037;-74
2023/06/01 00:43:10;;;;;;;9.68;5.28;;;;;;;13.54;100.00;92798.44;5072115;28;20171;-74
2023/06/01 00:45:40;;;;;;;8.63;4.82;;;;;;;13.51;100.00;92806.16;5054023;28;20056;-74
2023/06/01 00:48:06;;;;;;;9.57;5.43;;;;;;;13.44;100.00;92809.19;5071794;28;20033;-74
2023/06/01 00:50:33;;;;;;;12.13;5.20;;;;;;;13.38;100.00;92802.47;5053998;28;20041;-74
2023/06/01 00:53:00;;;;;;;9.35;4.90;;;;;;;13.32;100.00;92793.13;5071782;28;20036;-74
2023/06/01 00:55:27;;;;;;;8.38;5.05;;;;;;;13.32;100.00;92795.75;5071852;28;20434;-74
2023/06/01 00:57:54;;;;;;;11.30;4.90;;;;;;;13.28;100.00;92794.78;5071493;28;20045;-74
2023/06/01 01:00:20;;;;;;;10.50;5.80;;;;;;;13.21;100.00;92800.41;5053616;28;20110;-75
2023/06/01 01:02:48;;;;;;;9.95;5.15;;;;;;;13.17;100.00;92798.69;5053938;28;20135;-74
2023/06/01 01:05:15;;;;;;;11.57;5.13;;;;;;;13.16;100.00;92802.38;5071384;28;20120;-74
2023/06/01 01:07:41;;;;;;;9.50;5.32;;;;;;;13.10;100.00;92797.25;5071575;28;20485;-75
2023/06/01 01:10:19;;;;;;;10.23;5.35;;;;;;;13.10;100.00;92799.88;5053601;28;20039;-74
2023/06/01 01:13:01;;;;;;;10.38;5.22;;;;;;;13.11;100.00;92798.78;5053256;28;20146;-75
2023/06/01 01:15:55;;;;;;;10.50;5.47;;;;;;;13.15;100.00;92803.44;5053764;28;20048;-74
2023/06/01 01:18:46;;;;;;;9.07;5.15;;;;;;;13.17;100.00;92799.47;5071428;28;20044;-74
2023/06/01 01:21:27;;;;;;;10.25;5.70;;;;;;;13.18;100.00;92801.00;5053404;28;20040;-74
2023/06/01 01:23:54;;;;;;;11.77;5.60;;;;;;;13.21;100.00;92799.66;5071152;28;20032;-74
2023/06/01 01:26:35;;;;;;;9.63;5.10;;;;;;;13.23;100.00;92798.28;5053713;28;20119;-74
2023/06/01 01:29:08;;;;;;;8.30;5.22;;;;;;;13.26;100.00;92802.16;5053457;28;20044;-74
2023/06/01 01:31:37;;;;;;;10.95;4.75;;;;;;;13.27;100.00;92801.09;5053336;28;20390;-74
2023/06/01 01:34:03;;;;;;;9.13;5.07;;;;;;;13.28;100.00;92802.69;5053087;28;20044;-73
2023/06/01 01:36:30;;;;;;;11.35;5.57;;;;;;;13.29;100.00;92804.25;5053233;28;20064;-73
2023/06/01 01:38:56;;;;;;;12.52;5.32;;;;;;;13.31;100.00;92804.75;5071352;28;20028;-74
2023/06/01 01:41:21;;;;;;;8.05;4.97;;;;;;;13.32;100.00;92808.91;5071396;28;20406;-74
2023/06/01 01:43:48;;;;;;;13.38;5.60;;;;;;;13.32;100.00;92808.91;5071083;28;20029;-74
2023/06/01 01:46:26;;;;;;;9.38;4.70;;;;;;;13.33;100.00;92807.84;5036264;28;20398;-75
2023/06/01 01:48:54;;;;;;;11.20;5.60;;;;;;;13.32;100.00;92806.28;5070950;28;20037;-74
2023/06/01 01:51:26;;;;;;;8.90;4.88;;;;;;;13.31;100.00;92802.09;5053018;28;20033;-74
2023/06/01 01:53:54;;;;;;;12.63;5.45;;;;;;;13.31;100.00;92799.47;5052750;28;20071;-74
2023/06/01 01:56:21;;;;;;;10.57;5.30;;;;;;;13.31;100.00;92794.22;5070930;28;20490;-75
2023/06/01 01:58:48;;;;;;;14.95;5.35;;;;;;;13.33;100.00;92798.09;5053133;28;20078;-74
2023/06/01 02:01:16;;;;;;;12.15;5.00;;;;;;;13.36;100.00;92796.75;5036913;28;20490;-74
2023/06/01 02:03:42;;;;;;;7.95;5.07;;;;;;;13.37;100.00;92793.03;5053004;28;20040;-74
2023/06/01 02:06:07;;;;;;;10.45;5.18;;;;;;;13.38;100.00;92797.22;5036508;28;20040;-74
2023/06/01 02:08:33;;;;;;;9.65;5.10;;;;;;;13.40;100.00;92791.69;5052883;28;20041;-74
2023/06/01 02:10:59;;;;;;;10.02;5.07;;;;;;;13.38;100.00;92791.97;5053008;28;20025;-73
2023/06/01 02:13:24;;;;;;;11.50;5.40;;;;;;;13.37;100.00;92792.25;5052715;28;20353;-73
2023/06/01 02:15:50;;;;;;;11.82;5.15;;;;;;;13.35;100.00;92792.53;5070810;28;20036;-73
2023/06/01 02:18:17;;;;;;;9.23;5.20;;;;;;;13.35;100.00;92786.50;5036176;28;20401;-74
2023/06/01 02:20:45;;;;;;;7.40;4.60;;;;;;;13.35;100.00;92789.13;5036104;28;20102;-73
2023/06/01 02:23:11;;;;;;;10.13;4.90;;;;;;;13.32;100.00;92790.50;5052934;28;20043;-74
2023/06/01 02:25:36;;;;;;;8.95;5.18;;;;;;;13.32;100.00;92785.25;5052889;28;20524;-74
2023/06/01 02:28:02;;;;;;;11.15;5.65;;;;;;;13.31;100.00;92783.72;5036123;28;20067;-75
2023/06/01 02:30:28;;;;;;;8.77;5.20;;;;;;;13.31;100.00;92775.81;5052579;28;20460;-74
2023/06/01 02:32:54;;;;;;;12.20;6.00;;;;;;;13.30;100.00;92776.88;5052545;28;20048;-74
2023/06/01 02:35:19;;;;;;;8.38;4.93;;;;;;;13.30;100.00;92774.25;5052619;28;20041;-74
2023/06/01 02:37:46;;;;;;;9.70;4.90;;;;;;;13.28;100.00;92768.50;5052687;28;20037;-74
2023/06/01 02:40:12;;;;;;;10.80;6.00;;;;;;;13.27;100.00;92772.97;5052558;28;20032;-75
2023/06/01 02:42:38;;;;;;;11.77;5.30;;;;;;;13.26;100.00;92770.63;5052524;28;20071;-75
2023/06/01 02:45:06;;;;;;;10.90;5.60;;;;;;;13.22;100.00;92759.94;5052643;28;20252;-73
2023/06/01 02:47:31;;;;;;;17.77;6.38;;;;;;;13.19;100.00;92762.34;5052196;28;20414;-74
2023/06/01 02:49:57;;;;;;;14.85;6.18;;;;;;;13.16;100.00;92760.34;5052428;28;20028;-75
2023/06/01 02:52:23;;;;;;;13.07;5.22;;;;;;;13.11;100.00;92763.84;5036495;28;20033;-74
2023/06/01 02:54:49;;;;;;;7.57;4.55;;;;;;;13.06;100.00;92756.84;5052412;28;20041;-74
2023/06/01 02:57:42;;;;;;;10.63;5.30;;;;;;;13.03;100.00;92759.28;5052276;28;20028;-74
2023/06/01 03:00:15;;;;;;;11.70;5.57;;;;;;;12.98;100.00;92754.91;5052629;28;20090;-75
2023/06/01 03:02:42;;;;;;;9.10;5.18;;;;;;;12.94;100.00;92743.41;5052422;28;20047;-74
2023/06/01 03:05:08;;;;;;;12.35;5.68;;;;;;;12.88;100.00;92749.88;5054289;28;20107;-74
2023/06/01 03:07:35;;;;;;;10.60;5.90;;;;;;;12.87;100.00;92743.03;5056052;28;20317;-74
2023/06/01 03:10:09;;;;;;;10.88;5.72;;;;;;;12.83;100.00;92742.84;5056038;28;20060;-74
2023/06/01 03:12:57;;;;;;;13.73;5.55;;;;;;;12.80;100.00;92743.44;5055716;28;20510;-74
2023/06/01 03:15:23;;;;;;;9.93;5.97;;;;;;;12.77;100.00;92745.88;5039036;28;20122;-75
2023/06/01 03:17:49;;;;;;;10.77;6.10;;;;;;;12.75;100.00;92748.03;5055984;28;20071;-74
2023/06/01 03:20:15;;;;;;;11.18;6.38;;;;;;;12.74;100.00;92743.81;5055662;28;20036;-74
2023/06/01 03:22:42;;;;;;;13.38;7.18;;;;;;;12.71;100.00;92734.69;5055586;28;20044;-74
2023/06/01 03:25:08;;;;;;;14.10;6.53;;;;;;;12.70;100.00;92739.16;5038956;28;20051;-74
2023/06/01 03:27:35;;;;;;;13.77;6.93;;;;;;;12.67;100.00;92734.47;5056549;28;20040;-75
2023/06/01 03:30:02;;;;;;;15.85;7.68;;;;;;;12.65;100.00;92731.38;5039334;28;20039;-74
2023/06/01 03:32:28;;;;;;;12.05;6.63;;;;;;;12.63;100.00;92732.72;5056472;28;20251;-74
2023/06/01 03:34:55;;;;;;;14.32;7.28;;;;;;;12.62;100.00;92728.56;5055347;28;20044;-75
2023/06/01 03:37:21;;;;;;;15.38;7.57;;;;;;;12.61;100.00;92735.66;5073306;28;20044;-75
2023/06/01 03:39:47;;;;;;;13.73;7.22;;;;;;;12.60;100.00;92739.34;5038734;28;20436;-74
2023/06/01 03:42:14;;;;;;;17.75;7.70;;;;;;;12.58;100.00;92741.47;5055172;28;20044;-74
2023/06/01 03:44:41;;;;;;;17.50;7.10;;;;;;;12.57;100.00;92734.69;5055020;28;20086;-76
2023/06/01 03:47:07;;;;;;;12.77;7.38;;;;;;;12.60;100.00;92738.56;5077676;28;20022;-76
2023/06/01 03:49:33;;;;;;;15.88;7.15;;;;;;;12.61;100.00;92742.75;5059311;28;20087;-75
2023/06/01 03:51:59;;;;;;;11.82;6.32;;;;;;;12.64;100.00;92739.56;5059928;28;20024;-76
2023/06/01 03:54:25;;;;;;;12.18;7.05;;;;;;;12.64;100.00;92740.31;5058923;28;20036;-77
2023/06/01 03:56:50;;;;;;;12.02;7.00;;;;;;;12.65;100.00;92741.09;5056087;28;20520;-77
2023/06/01 03:59:16;;;;;;;10.75;6.18;;;;;;;12.63;100.00;92743.22;5039116;28;20032;-77
2023/06/01 04:01:42;;;;;;;12.00;6.63;;;;;;;12.63;100.00;92738.78;5058470;28;20041;-76
2023/06/01 04:04:08;;;;;;;13.65;6.85;;;;;;;12.63;100.00;92741.41;5059714;28;20028;-77
2023/06/01 04:06:36;;;;;;;14.13;6.68;;;;;;;12.65;100.00;92741.91;5063623;28;20031;-77
2023/06/01 04:09:06;;;;;;;11.23;6.50;;;;;;;12.67;100.00;92749.47;5055316;28;20467;-77
2023/06/01 04:11:33;;;;;;;13.93;7.10;;;;;;;12.66;100.00;92746.06;5065630;28;20440;-77
2023/06/01 04:13:59;;;;;;;12.60;6.70;;;;;;;12.66;100.00;92742.66;5052431;28;20040;-76
2023/06/01 04:16:26;;;;;;;11.10;6.68;;;;;;;12.67;100.00;92742.34;5055511;28;20547;-76
2023/06/01 04:18:52;;;;;;;15.95;7.40;;;;;;;12.67;100.00;92752.84;5067823;28;20036;-76
2023/06/01 04:21:21;;;;;;;12.73;7.82;;;;;;;12.69;100.00;92745.47;5061654;28;20040;-77
2023/06/01 04:23:48;;;;;;;12.68;7.47;;;;;;;12.71;100.00;92745.97;5058339;28;20056;-76
2023/06/01 04:26:15;;;;;;;12.50;7.13;;;;;;;12.74;100.00;92744.59;5052330;28;20039;-77
2023/06/01 04:28:45;;;;;;;13.57;7.40;;;;;;;12.76;100.00;92746.94;5057432;28;20498;-76
2023/06/01 04:31:18;;;;;;;11.50;6.90;;;;;;;12.78;100.00;92744.78;5050696;28;20534;-77
2023/06/01 04:33:52;;;;;;;10.98;6.60;;;;;;;12.81;100.00;92744.19;5045219;28;20043;-77
2023/06/01 04:36:20;;;;;;;10.98;6.38;;;;;;;12.85;100.00;92745.94;5054851;28;20150;-77
2023/06/01 04:38:54;;;;;;;12.25;6.40;;;;;;;12.89;100.00;92751.41;5040591;28;20501;-77
2023/06/01 04:41:21;;;;;;;12.57;7.00;;;;;;;12.96;100.00;92749.16;5062807;28;20067;-77
2023/06/01 04:43:54;;;;;;;10.48;6.03;;;;;;;13.01;100.00;92749.03;5058063;28;20032;-77
2023/06/01 04:46:26;;;;;;;10.77;6.22;;;;;;;13.08;100.00;92748.66;5073989;28;20062;-77
2023/06/01 04:48:59;;;;;;;11.48;6.60;;;;;;;13.12;100.00;92742.50;5069091;28;20035;-77
2023/06/01 04:51:30;;;;;;;12.07;6.15;;;;;;;13.20;100.00;92735.03;5057705;28;20028;-76
2023/06/01 04:53:56;;;;;;;10.32;6.30;;;;;;;13.24;100.00;92736.75;5071948;28;20036;-76
2023/06/01 04:56:24;;;;;;;13.60;6.47;;;;;;;13.29;100.00;92739.28;5059200;28;20318;-76
2023/06/01 04:58:51;;;;;;;9.55;5.68;;;;;;;13.37;100.00;92737.81;5056540;28;20044;-76
2023/06/01 05:01:17;;;;;;;10.50;5.85;;;;;;;13.43;100.00;92744.50;5066722;28;20040;-76
2023/06/01 05:03:45;;;;;;;12.23;5.25;;;;;;;13.52;100.00;92736.69;5060812;28;20044;-77
2023/06/01 05:06:13;;;;;;;9.68;5.60;;;;;;;13.61;100.00;92737.53;5057729;28;20521;-77
2023/06/01 05:08:40;;;;;;;12.82;6.32;;;;;;;13.69;100.00;92730.78;5069697;28;20501;-76
2023/06/01 05:11:07;;;;;;;9.93;6.05;;;;;;;13.78;100.00;92734.28;5053387;28;20399;-76
2023/06/01 05:13:38;;;;;;;10.63;6.07;;;;;;;13.84;100.00;92727.78;5053595;28;20414;-76
2023/06/01 05:16:04;;;;;;;10.32;6.15;;;;;;;13.93;100.00;92723.34;5055366;28;20041;-76
2023/06/01 05:18:31;;;;;;;11.00;6.30;;;;;;;14.00;100.00;92735.31;5054455;28;20037;-77
2023/06/01 05:20:56;;;;;;;14.27;6.60;;;;;;;14.08;100.00;92730.13;5054469;28;20118;-77
2023/06/01 05:23:24;;;;;;;10.13;6.22;;;;;;;14.16;100.00;92728.59;5038574;28;20473;-77
2023/06/01 05:25:49;;;;;;;12.13;6.38;;;;;;;14.26;100.00;92733.63;5057135;28;20032;-77
2023/06/01 05:28:16;;;;;;;9.70;5.72;;;;;;;14.36;100.00;92736.00;5034278;28;20037;-77
2023/06/01 05:30:41;;;;;;;10.70;5.55;;;;;;;14.50;100.00;92737.75;5064198;28;20029;-77
2023/06/01 05:33:07;;;;;;;14.80;5.22;;;;;;;14.61;100.00;92739.06;5061043;28;20044;-74
2023/06/01 05:35:33;;;;;;;13.70;5.45;;;;;;;14.63;100.00;92733.50;5011451;28;20029;-76
2023/06/01 05:37:59;;;;;;;11.65;5.38;;;;;;;14.68;100.00;92734.16;5051147;28;20451;-76
2023/06/01 05:40:25;;;;;;;12.70;5.30;;;;;;;14.70;100.00;92731.19;5050779;28;20048;-76
2023/06/01 05:42:51;;;;;;;9.40;5.53;;;;;;;14.89;100.00;92741.50;5038189;28;20060;-77
2023/06/01 05:45:17;;;;;;;10.07;4.80;;;;;;;15.10;100.00;92739.03;5052465;28;20454;-77
2023/06/01 05:47:43;;;;;;;9.55;5.35;;;;;;;15.28;100.00;92742.50;5062938;28;20395;-77
2023/06/01 05:50:10;;;;;;;13.50;5.25;;;;;;;15.79;100.00;92744.41;5045971;28;20059;-77
2023/06/01 05:52:36;;;;;;;11.57;5.38;;;;;;;16.20;100.00;92742.31;5054517;28;20144;-77
2023/06/01 05:55:03;;;;;;;13.85;5.80;;;;;;;16.54;100.00;92740.69;5067995;28;20024;-77
2023/06/01 05:57:29;;;;;;;12.10;5.47;;;;;;;16.88;100.00;92739.00;5058283;28;20041;-77
2023/06/01 05:59:54;;;;;;;9.65;5.63;;;;;;;17.30;100.00;92739.88;5051744;28;20059;-77
2023/06/01 06:02:20;;;;;;;14.15;5.47;;;;;;;17.51;98.53;92745.16;5063424;28;20040;-77
2023/06/01 06:04:46;;;;;;;8.70;4.95;;;;;;;18.08;99.30;92746.44;5068080;28;20163;-77
2023/06/01 06:07:12;;;;;;;9.55;4.93;;;;;;;18.38;84.25;92749.75;5035981;28;20080;-77
2023/06/01 06:09:38;;;;;;;9.52;5.40;;;;;;;18.42;79.96;92753.31;5051930;28;20035;-77
2023/06/01 06:12:05;;;;;;;8.48;4.60;;;;;;;18.73;77.74;92749.34;5067153;28;20446;-78
2023/06/01 06:14:33;;;;;;;11.45;5.10;;;;;;;18.92;83.23;92746.97;5073282;28;20387;-77
2023/06/01 06:17:00;;;;;;;9.55;5.30;;;;;;;18.90;80.97;92753.72;5057300;28;20047;-77
2023/06/01 06:19:26;;;;;;;8.95;5.18;;;;;;;19.07;81.25;92748.22;5056907;28;20067;-78
2023/06/01 06:21:52;;;;;;;12.13;5.75;;;;;;;18.98;82.03;92749.41;5072663;28;20045;-77
2023/06/01 06:24:18;;;;;;;8.70;4.97;;;;;;;19.33;80.03;92750.50;5072030;28;20032;-77
2023/06/01 06:27:05;;;;;;;13.20;5.47;;;;;;;19.65;75.92;92755.97;5056889;28;20145;-78
2023/06/01 06:29:32;;;;;;;11.32;5.65;;;;;;;19.91;78.98;92746.88;5074642;28;20029;-78
2023/06/01 06:31:58;;;;;;;10.43;5.45;;;;;;;19.50;75.90;92754.03;5059360;28;20027;-78
2023/06/01 06:34:25;;;;;;;9.95;5.45;;;;;;;19.39;76.11;92747.63;5077022;28;20032;-78
2023/06/01 06:36:52;;;;;;;13.18;5.82;;;;;;;19.22;83.73;92749.41;5073930;28;20032;-79
2023/06/01 06:39:18;;;;;;;9.07;4.97;;;;;;;19.03;87.93;92741.25;5054188;28;20498;-78
2023/06/01 06:41:45;;;;;;;11.07;5.57;;;;;;;18.59;92.75;92743.59;5057124;28;20391;-78
2023/06/01 06:44:11;;;;;;;11.95;5.35;;;;;;;18.30;91.53;92745.31;5054138;28;20048;-75
2023/06/01 06:46:37;;;;;;;12.45;5.35;;;;;;;17.80;90.25;92754.91;5054088;28;20490;-76
2023/06/01 06:49:02;;;;;;;15.27;6.28;;;;;;;17.53;99.46;92748.28;5055741;28;20071;-76
2023/06/01 06:51:29;;;;;;;9.43;5.50;;;;;;;17.37;98.39;92752.59;5056260;28;20025;-76
2023/06/01 06:53:55;;;;;;;11.05;5.60;;;;;;;17.41;97.00;92745.56;5054169;28;20115;-75
2023/06/01 06:56:21;;;;;;;8.40;5.28;;;;;;;17.46;90.60;92753.31;5057522;28;20056;-75
2023/06/01 06:58:47;;;;;;;9.68;5.43;;;;;;;17.61;93.60;92750.09;5046637;28;20440;-75
2023/06/01 07:01:12;;;;;;;8.73;5.30;;;;;;;17.86;90.85;92744.94;5062266;28;20038;-75
2023/06/01 07:03:38;;;;;;;10.30;5.30;;;;;;;17.85;86.95;92744.16;5058773;28;20075;-76
2023/06/01 07:06:04;;;;;;;8.82;5.43;;;;;;;18.08;88.80;92747.25;5075297;28;20406;-76
2023/06/01 07:08:34;;;;;;;12.50;5.20;;;;;;;18.37;90.45;92737.59;5076293;28;20059;-77
2023/06/01 07:11:00;;;;;;;13.68;5.47;;;;;;;18.57;89.91;92737.84;5074547;28;20032;-76
2023/06/01 07:13:27;;;;;;;8.80;5.65;;;;;;;18.39;91.37;92740.69;5066135;28;20064;-77
2023/06/01 07:15:53;;;;;;;11.80;5.82;;;;;;;18.10;94.96;92742.41;5038431;28;20118;-77
2023/06/01 07:18:19;;;;;;;10.25;5.72;;;;;;;17.99;96.75;92740.47;5054827;28;20568;-77
2023/06/01 07:20:45;;;;;;;8.38;5.32;;;;;;;17.97;100.00;92740.81;5075528;28;20107;-75
2023/06/01 07:23:12;;;;;;;10.43;5.40;;;;;;;17.96;100.00;92749.81;5072638;28;20039;-75
2023/06/01 07:25:38;;;;;;;10.20;6.00;;;;;;;18.05;98.37;92739.94;5073641;28;20503;-75
2023/06/01 07:28:07;;;;;;;9.13;5.10;;;;;;;18.27;94.31;92738.78;5072814;28;20032;-75
2023/06/01 07:30:33;;;;;;;13.48;6.13;;;;;;;18.13;95.08;92740.19;5072158;28;20062;-75
2023/06/01 07:32:59;;;;;;;11.50;5.80;;;;;;;18.22;93.03;92746.19;5073715;28;20585;-75
2023/06/01 07:35:25;;;;;;;11.93;5.82;;;;;;;18.14;92.41;92745.16;5073342;28;20119;-75
2023/06/01 07:37:50;;;;;;;10.63;6.22;;;;;;;18.03;94.84;92744.00;5073474;28;20059;-75
2023/06/01 07:40:16;;;;;;;11.15;5.93;;;;;;;18.29;95.77;92741.88;5073449;28;20041;-75
2023/06/01 07:42:42;;;;;;;12.15;5.68;;;;;;;18.49;94.30;92734.97;5073411;28;20024;-75
2023/06/01 07:45:08;;;;;;;9.23;5.53;;;;;;;18.39;93.97;92745.22;5073407;28;20367;-75
2023/06/01 07:47:35;;;;;;;11.45;6.15;;;;;;;18.18;97.14;92739.97;5072995;28;20052;-75
2023/06/01 07:50:00;;;;;;;9.88;5.53;;;;;;;17.99;95.52;92735.97;5072747;28;20025;-75
2023/06/01 07:52:26;;;;;;;11.60;5.75;;;;;;;18.13;96.29;92737.53;5073176;28;20525;-75
2023/06/01 07:54:51;;;;;;;8.75;5.13;;;;;;;18.33;95.00;92736.72;5072925;28;20116;-75
2023/06/01 07:57:17;;;;;;;12.38;6.43;;;;;;;18.04;93.59;92735.75;5073032;28;20032;-75
2023/06/01 07:59:42;;;;;;;12.98;5.43;;;;;;;18.19;91.78;92733.56;5073127;28;20063;-75
2023/06/01 08:02:10;;;;;;;12.00;5.97;;;;;;;18.27;90.77;92738.03;5071711;28;20040;-75
2023/06/01 08:04:38;;;;;;;10.73;6.57;;;;;;;18.63;91.18;92733.91;5073096;28;20564;-75
2023/06/01 08:07:06;;;;;;;11.43;6.05;;;;;;;18.84;89.07;92733.81;5072996;28;20044;-75
2023/06/01 08:09:31;;;;;;;12.23;5.00;;;;;;;18.79;87.75;92736.69;5072982;28;20036;-75
2023/06/01 08:11:57;;;;;;;16.20;5.72;;;;;;;18.76;91.26;92737.34;5071648;28;20047;-75
2023/06/01 08:14:23;;;;;;;13.68;6.15;;;;;;;18.83;90.45;92733.06;5073180;28;20375;-75
2023/06/01 08:16:51;;;;;;;10.57;5.93;;;;;;;19.02;89.85;92732.50;5073040;28;20134;-75
2023/06/01 08:19:17;;;;;;;10.80;6.22;;;;;;;18.99;85.76;92727.09;5072632;28;20044;-75
2023/06/01 08:21:45;;;;;;;11.20;5.45;;;;;;;19.10;84.57;92736.91;5071346;28;20068;-75
2023/06/01 08:24:12;;;;;;;11.43;6.32;;;;;;;19.19;85.54;92736.81;5072488;28;20098;-75
2023/06/01 08:26:38;;;;;;;11.98;5.78;;;;;;;19.54;83.70;92728.34;5071238;28;20488;-75
2023/06/01 08:29:03;;;;;;;12.20;6.07;;;;;;;19.56;82.85;92731.44;5072535;28;20044;-75
2023/06/01 08:31:29;;;;;;;8.98;5.78;;;;;;;19.69;82.05;92726.91;5072309;28;20060;-75
2023/06/01 08:33:55;;;;;;;10.82;6.38;;;;;;;19.59;81.67;92735.28;5071182;28;20127;-75
2023/06/01 08:36:21;;;;;;;11.60;7.10;;;;;;;19.08;82.18;92733.81;5072735;28;20079;-75
2023/06/01 08:38:49;;;;;;;46.10;8.50;;;;;;;18.93;86.42;92732.59;5072512;28;20066;-74
2023/06/01 08:42:03;;;;;;;12.57;5.35;;;;;;;18.62;86.90;92729.69;5072612;28;20548;-74
2023/06/01 08:44:35;;;;;;;14.32;6.40;;;;;;;18.92;87.95;92725.75;4990365;28;20053;-75
2023/06/01 08:47:01;;;;;;;;;;;;;;;19.11;86.55;92737.69;5066012;28;20075;-75
2023/06/01 08:49:30;;;;;;;12.43;6.78;;;;;;;19.12;79.31;92729.41;5072236;28;19908;-75
2023/06/01 08:51:57;;;;;;;8.65;5.50;;;;;;;19.22;84.49;92728.16;5072237;28;20087;-75
2023/06/01 08:54:23;;;;;;;13.68;6.60;;;;;;;19.40;85.31;92733.25;5072472;28;20036;-75
2023/06/01 08:56:48;;;;;;;15.38;6.78;;;;;;;19.16;79.33;92729.50;5072429;28;20108;-74
2023/06/01 08:59:14;;;;;;;15.68;6.50;;;;;;;19.53;80.17;92726.81;5072155;28;20120;-75
2023/06/01 09:01:40;;;;;;;12.60;6.53;;;;;;;19.62;77.37;92730.09;5070370;28;20406;-75
2023/06/01 09:04:07;;;;;;;11.10;6.38;;;;;;;19.68;75.70;92722.66;5071822;28;20758;-75
2023/06/01 09:06:33;;;;;;;11.90;6.22;;;;;;;19.81;77.71;92731.38;5072514;28;20510;-75
2023/06/01 09:08:59;;;;;;;11.30;6.72;;;;;;;19.32;79.32;92725.06;5071136;28;20056;-75
2023/06/01 09:11:26;;;;;;;15.35;7.32;;;;;;;19.43;82.42;92727.25;5071267;28;20024;-75
2023/06/01 09:13:52;;;;;;;9.95;6.25;;;;;;;19.61;82.73;92723.25;5092027;28;20048;-75
2023/06/01 09:16:17;;;;;;;10.40;5.72;;;;;;;19.81;82.47;92721.53;5074586;28;20525;-75
2023/06/01 09:18:55;;;;;;;13.07;6.78;;;;;;;19.73;76.48;92725.88;5092238;28;20460;-74
2023/06/01 09:21:22;;;;;;;11.48;6.80;;;;;;;19.75;78.70;92731.63;5092167;28;20110;-75
2023/06/01 09:23:47;;;;;;;15.02;6.38;;;;;;;19.84;77.33;92714.81;5073902;28;20028;-75
2023/06/01 09:26:14;;;;;;;10.10;6.25;;;;;;;20.11;75.87;92721.97;5092177;28;20038;-74
2023/06/01 09:28:55;;;;;;;11.75;6.32;;;;;;;20.00;78.68;92720.94;5074488;28;20040;-75
2023/06/01 09:31:46;;;;;;;11.05;6.50;;;;;;;20.32;76.33;92721.00;5074014;28;20397;-75
2023/06/01 09:34:18;;;;;;;7.60;4.43;;;;;;;20.57;75.17;92711.78;5056923;28;20092;-75
2023/06/01 09:36:48;;;;;;;11.85;7.03;;;;;;;20.56;72.16;92715.56;5073668;28;20500;-75
2023/06/01 09:39:16;;;;;;;12.70;6.70;;;;;;;20.37;76.67;92715.41;5091875;28;20032;-75
2023/06/01 09:42:01;;;;;;;12.77;6.72;;;;;;;20.25;74.75;92708.28;5091743;28;20059;-75
2023/06/01 09:44:29;;;;;;;10.38;5.80;;;;;;;20.21;78.09;92714.63;5091919;28;20044;-75
2023/06/01 09:46:55;;;;;;;10.43;5.93;;;;;;;20.51;78.01;92705.16;5053272;28;20032;-75
2023/06/01 09:49:32;;;;;;;10.25;6.05;;;;;;;20.42;76.33;92707.19;5071416;28;20142;-74
2023/06/01 09:52:04;;;;;;;11.60;6.10;;;;;;;20.80;75.97;92703.19;5071511;28;20094;-75
2023/06/01 09:54:41;;;;;;;10.45;6.18;;;;;;;20.79;75.86;92699.00;5071417;28;20059;-75
2023/06/01 09:57:08;;;;;;;11.48;5.13;;;;;;;20.93;74.55;92699.31;5071164;28;20037;-75
2023/06/01 09:59:44;;;;;;;10.98;6.05;;;;;;;21.08;72.24;92689.78;5071640;28;20497;-74
2023/06/01 10:02:31;;;;;;;11.43;6.55;;;;;;;20.91;73.41;92690.91;5071405;28;20025;-75
2023/06/01 10:04:58;;;;;;;18.40;6.70;;;;;;;20.78;73.84;92689.47;5072007;28;20044;-74
2023/06/01 10:07:26;;;;;;;9.55;5.43;;;;;;;20.61;71.79;92692.50;5071579;28;20525;-75
2023/06/01 10:09:57;;;;;;;11.52;6.05;;;;;;;20.71;75.09;92689.31;5071402;28;20488;-75
2023/06/01 10:12:24;;;;;;;10.57;5.80;;;;;;;20.33;72.99;92693.28;5072009;28;20660;-76
2023/06/01 10:14:50;;;;;;;8.52;5.45;;;;;;;20.37;74.53;92686.94;5056684;28;20063;-74
2023/06/01 10:17:18;;;;;;;13.98;7.10;;;;;;;20.52;70.56;92688.06;5057539;28;20588;-74
2023/06/01 10:19:45;;;;;;;12.02;6.07;;;;;;;20.81;74.20;92685.38;5058019;28;20478;-75
2023/06/01 10:22:11;;;;;;;11.05;6.10;;;;;;;21.02;70.91;92690.41;5075038;28;20072;-75
2023/06/01 10:24:41;;;;;;;11.40;5.75;;;;;;;20.92;69.97;92689.81;5075096;28;20119;-75
2023/06/01 10:27:10;;;;;;;9.95;5.70;;;;;;;21.09;69.42;92690.56;5075509;28;20040;-75
2023/06/01 10:29:36;;;;;;;11.75;6.05;;;;;;;21.50;70.89;92689.19;5075143;28;20111;-75
2023/06/01 10:32:02;;;;;;;11.77;5.68;;;;;;;21.35;71.06;92685.44;5074754;28;20455;-75
2023/06/01 10:34:44;;;;;;;12.15;5.90;;;;;;;21.25;67.50;92683.28;5074675;28;20072;-74
2023/06/01 10:37:14;;;;;;;8.68;5.03;;;;;;;21.38;69.37;92674.06;5075143;28;20036;-74
2023/06/01 10:39:40;;;;;;;9.25;5.40;;;;;;;21.29;69.09;92670.84;5075299;28;20486;-74
2023/06/01 10:42:14;;;;;;;11.63;6.15;;;;;;;21.39;70.77;92675.63;5074998;28;20418;-75
2023/06/01 10:44:40;;;;;;;9.85;5.97;;;;;;;20.86;68.02;92674.44;5039682;28;20058;-75
2023/06/01 10:47:05;;;;;;;9.07;5.57;;;;;;;21.17;68.75;92676.28;5074531;28;20115;-74
2023/06/01 10:49:46;;;;;;;9.93;5.38;;;;;;;20.61;69.11;92671.97;5057084;28;20119;-74
2023/06/01 10:52:38;;;;;;;10.25;5.63;;;;;;;20.09;70.55;92673.72;5074488;28;20033;-75
2023/06/01 10:55:07;;;;;;;9.70;5.20;;;;;;;19.88;73.59;92673.94;5074445;28;20058;-75
2023/06/01 10:57:32;;;;;;;12.25;6.45;;;;;;;19.70;75.71;92678.78;5073401;28;20497;-74
2023/06/01 11:00:26;;;;;;;11.90;5.30;;;;;;;19.83;74.00;92665.44;5074264;28;20036;-74
2023/06/01 11:03:04;;;;;;;11.43;6.32;;;;;;;19.78;73.29;92668.34;5056331;28;20115;-75
2023/06/01 11:05:34;;;;;;;12.20;6.65;;;;;;;19.62;76.32;92658.41;5056504;28;20189;-75
2023/06/01 11:07:59;;;;;;;12.43;5.97;;;;;;;19.82;73.52;92663.91;5074097;28;20037;-74
2023/06/01 11:10:50;;;;;;;11.48;5.32;;;;;;;19.86;72.64;92659.44;5073938;28;20036;-75
2023/06/01 11:13:18;;;;;;;7.63;5.07;;;;;;;20.41;73.68;92662.34;5074068;28;20036;-75
2023/06/01 11:19:03;;;;;;;8.73;5.20;;;;;;;20.78;65.89;92646.91;5060891;28;20079;-75
2023/06/01 11:21:54;;;;;;;10.93;5.70;;;;;;;21.01;67.44;92655.03;5056437;28;20044;-75
2023/06/01 11:24:19;;;;;;;10.52;5.65;;;;;;;21.03;68.70;92660.78;5056070;28;20040;-75
2023/06/01 11:26:47;;;;;;;7.40;4.72;;;;;;;21.18;67.32;92653.88;5038728;28;20017;-75
2023/06/01 11:29:23;;;;;;;10.80;5.65;;;;;;;21.19;67.69;92645.53;5075168;28;20371;-75
2023/06/01 11:32:00;;;;;;;15.60;5.70;;;;;;;20.93;70.15;92651.44;5074363;28;20119;-75
2023/06/01 11:34:38;;;;;;;9.10;5.30;;;;;;;20.53;69.56;92641.75;5073811;28;20039;-75